Time;durP1;ratioP1;P1;durP2;ratioP2;P2;SDS_P1;SDS_P2;PMS_P1;PMS_P2;Temp;Humidity;BMP_temperature;BMP_pressure;BME280_temperature;BME280_humidity;BME280_pressure;Samples;Min_cycle;Max_cycle;Signal;HPM_P1;HPM_P2
2022/04/05 00:02:16;;;;;;;;;23.25;21.50;;;;;;;;5057244;28;45334;-70
2022/04/05 00:04:41;;;;;;;;;30.25;29.50;;;;;;;;5056067;28;45321;-70
2022/04/05 00:07:06;;;;;;;;;23.50;19.25;;;;;;;;5057494;28;45225;-70
2022/04/05 00:09:32;;;;;;;;;27.50;25.50;;;;;;;;5057382;28;45235;-70
2022/04/05 00:11:58;;;;;;;;;23.75;20.50;;;;;;;;5056836;28;45491;-70
2022/04/05 00:14:23;;;;;;;;;19.00;18.75;;;;;;;;5057110;28;45464;-71
2022/04/05 00:16:49;;;;;;;;;22.00;17.50;;;;;;;;5057611;28;45461;-71
2022/04/05 00:19:14;;;;;;;;;23.00;21.25;;;;;;;;5056150;28;45386;-72
2022/04/05 00:21:40;;;;;;;;;21.25;19.25;;;;;;;;5056939;28;46019;-71
2022/04/05 00:24:05;;;;;;;;;23.00;22.50;;;;;;;;5057094;28;45478;-71
2022/04/05 00:26:31;;;;;;;;;20.25;16.00;;;;;;;;5057196;28;45382;-72
2022/04/05 00:28:56;;;;;;;;;20.00;19.50;;;;;;;;5057343;28;45315;-72
2022/04/05 00:31:21;;;;;;;;;20.75;17.75;;;;;;;;5057047;28;46286;-71
2022/04/05 00:33:47;;;;;;;;;23.25;19.75;;;;;;;;5056990;28;45478;-70
2022/04/05 00:36:12;;;;;;;;;19.25;16.75;;;;;;;;5056851;28;45409;-70
2022/04/05 00:38:38;;;;;;;;;21.50;19.25;;;;;;;;5060170;28;45747;-70
2022/04/05 00:41:04;;;;;;;;;19.00;18.75;;;;;;;;5060653;28;46499;-70
2022/04/05 00:43:29;;;;;;;;;17.75;15.75;;;;;;;;5060449;28;45347;-70
2022/04/05 00:45:55;;;;;;;;;17.00;17.00;;;;;;;;5060640;28;45235;-70
2022/04/05 00:48:33;;;;;;;;;19.25;18.50;;;;;;;;5060967;28;45486;-70
2022/04/05 00:50:58;;;;;;;;;16.00;15.75;;;;;;;;5060053;28;45602;-70
2022/04/05 00:53:24;;;;;;;;;16.50;15.00;;;;;;;;5058666;28;45340;-71
2022/04/05 00:55:52;;;;;;;;;15.25;15.00;;;;;;;;5060267;28;45467;-70
2022/04/05 00:58:19;;;;;;;;;17.75;16.00;;;;;;;;5060703;28;45523;-70
2022/04/05 01:00:47;;;;;;;;;18.50;15.50;;;;;;;;5060146;28;46486;-70
2022/04/05 01:03:12;;;;;;;;;15.50;14.50;;;;;;;;5058501;28;45337;-70
2022/04/05 01:05:38;;;;;;;;;15.25;14.00;;;;;;;;5058598;28;45747;-70
2022/04/05 01:08:05;;;;;;;;;13.00;13.00;;;;;;;;5060088;28;45470;-70
2022/04/05 01:10:30;;;;;;;;;11.50;11.50;;;;;;;;5058627;28;45641;-70
2022/04/05 01:12:56;;;;;;;;;12.25;11.75;;;;;;;;5060114;28;45464;-70
2022/04/05 01:15:21;;;;;;;;;11.50;11.25;;;;;;;;5060228;28;45380;-70
2022/04/05 01:17:46;;;;;;;;;15.00;13.00;;;;;;;;5060185;28;45490;-70
2022/04/05 01:20:12;;;;;;;;;19.50;16.00;;;;;;;;5059776;28;45333;-70
2022/04/05 01:22:47;;;;;;;;;16.00;15.50;;;;;;;;5059878;28;45399;-70
2022/04/05 01:25:13;;;;;;;;;12.00;12.00;;;;;;;;5059924;28;45450;-70
2022/04/05 01:27:39;;;;;;;;;15.75;12.75;;;;;;;;5059904;28;45510;-70
2022/04/05 01:30:04;;;;;;;;;18.00;18.00;;;;;;;;5057623;28;46777;-70
2022/04/05 01:32:30;;;;;;;;;17.25;14.00;;;;;;;;5057134;28;45273;-70
2022/04/05 01:34:55;;;;;;;;;15.25;13.00;;;;;;;;5059092;28;45254;-70
2022/04/05 01:37:21;;;;;;;;;15.75;14.75;;;;;;;;5059152;28;45514;-70
2022/04/05 01:39:46;;;;;;;;;16.25;13.25;;;;;;;;5057142;28;46301;-70
2022/04/05 01:42:12;;;;;;;;;15.00;14.00;;;;;;;;5058591;28;45329;-70
2022/04/05 01:44:38;;;;;;;;;17.75;16.00;;;;;;;;5057372;28;45275;-70
2022/04/05 01:47:04;;;;;;;;;18.50;16.00;;;;;;;;5058497;28;45217;-70
2022/04/05 01:49:30;;;;;;;;;14.25;12.50;;;;;;;;5057633;28;45535;-71
2022/04/05 01:51:55;;;;;;;;;12.75;12.75;;;;;;;;5057225;28;45372;-73
2022/04/05 01:54:20;;;;;;;;;18.00;15.00;;;;;;;;5058150;28;45341;-73
2022/04/05 01:56:47;;;;;;;;;15.50;14.50;;;;;;;;5058502;28;45256;-73
2022/04/05 01:59:14;;;;;;;;;14.00;13.00;;;;;;;;5058121;28;46655;-73
2022/04/05 02:01:40;;;;;;;;;15.00;14.50;;;;;;;;5056764;28;45420;-72
2022/04/05 02:04:06;;;;;;;;;18.50;15.00;;;;;;;;5056868;28;45563;-72
2022/04/05 02:06:32;;;;;;;;;18.25;15.75;;;;;;;;5057900;28;45360;-72
2022/04/05 02:08:57;;;;;;;;;15.00;12.00;;;;;;;;5058141;28;45554;-72
2022/04/05 02:11:23;;;;;;;;;16.00;14.75;;;;;;;;5058043;28;45276;-70
2022/04/05 02:13:48;;;;;;;;;25.00;21.00;;;;;;;;5056443;28;45512;-70
2022/04/05 02:16:14;;;;;;;;;17.00;15.25;;;;;;;;5057508;28;45557;-72
2022/04/05 02:18:40;;;;;;;;;24.50;22.00;;;;;;;;5056163;28;45445;-72
2022/04/05 02:21:06;;;;;;;;;17.50;15.50;;;;;;;;5057580;28;45214;-72
2022/04/05 02:23:31;;;;;;;;;15.50;14.00;;;;;;;;5057691;28;45645;-72
2022/04/05 02:25:57;;;;;;;;;15.75;15.25;;;;;;;;5058491;28;45250;-70
2022/04/05 02:28:23;;;;;;;;;11.50;10.50;;;;;;;;5057487;28;45357;-72
2022/04/05 02:30:48;;;;;;;;;21.75;18.50;;;;;;;;5008610;28;1410142;-72
2022/04/05 02:33:14;;;;;;;;;20.50;17.00;;;;;;;;5058970;28;45872;-72
2022/04/05 02:35:39;;;;;;;;;15.25;14.75;;;;;;;;5058572;28;45369;-72
2022/04/05 02:38:04;;;;;;;;;11.00;11.00;;;;;;;;5058403;28;46101;-72
2022/04/05 02:40:30;;;;;;;;;18.00;16.25;;;;;;;;5058654;28;45468;-72
2022/04/05 02:42:55;;;;;;;;;13.00;12.00;;;;;;;;5059147;28;45444;-72
2022/04/05 02:45:20;;;;;;;;;18.00;15.00;;;;;;;;5058802;28;45452;-72
2022/04/05 02:47:46;;;;;;;;;15.50;13.75;;;;;;;;5058499;28;45955;-71
2022/04/05 02:50:11;;;;;;;;;15.25;12.00;;;;;;;;5058526;28;45338;-71
2022/04/05 02:52:37;;;;;;;;;14.00;14.00;;;;;;;;5058608;28;45357;-72
2022/04/05 02:55:03;;;;;;;;;15.50;13.25;;;;;;;;5057276;28;45519;-72
2022/04/05 02:57:28;;;;;;;;;14.00;14.00;;;;;;;;5058247;28;46684;-71
2022/04/05 02:59:54;;;;;;;;;14.00;12.00;;;;;;;;5057408;28;45321;-71
2022/04/05 03:02:19;;;;;;;;;12.00;12.00;;;;;;;;5058231;28;45390;-72
2022/04/05 03:04:44;;;;;;;;;20.25;16.00;;;;;;;;5058511;28;45355;-74
2022/04/05 03:07:10;;;;;;;;;14.75;14.00;;;;;;;;5058080;28;45484;-72
2022/04/05 03:09:35;;;;;;;;;11.75;11.00;;;;;;;;5056824;28;45569;-72
2022/04/05 03:12:01;;;;;;;;;16.00;12.50;;;;;;;;5058662;28;45301;-72
2022/04/05 03:14:27;;;;;;;;;14.00;14.00;;;;;;;;5058480;28;45541;-72
2022/04/05 03:16:52;;;;;;;;;13.25;13.00;;;;;;;;5057900;28;45336;-72
2022/04/05 03:19:17;;;;;;;;;17.75;15.00;;;;;;;;5057921;28;45302;-71
2022/04/05 03:21:43;;;;;;;;;12.75;11.50;;;;;;;;5058005;28;45362;-71
2022/04/05 03:24:08;;;;;;;;;15.25;13.00;;;;;;;;5058096;28;45563;-72
2022/04/05 03:26:34;;;;;;;;;15.00;14.50;;;;;;;;5056617;28;47111;-72
2022/04/05 03:28:59;;;;;;;;;11.75;11.00;;;;;;;;5056801;28;45329;-72
2022/04/05 03:31:24;;;;;;;;;14.00;13.00;;;;;;;;5058018;28;45401;-71
2022/04/05 03:33:50;;;;;;;;;12.00;12.00;;;;;;;;5057763;28;45552;-72
2022/04/05 03:36:15;;;;;;;;;15.25;12.00;;;;;;;;5057669;28;45632;-71
2022/04/05 03:38:41;;;;;;;;;14.00;13.50;;;;;;;;5056411;28;45542;-72
2022/04/05 03:41:06;;;;;;;;;14.00;12.25;;;;;;;;5057999;28;45428;-71
2022/04/05 03:43:31;;;;;;;;;18.50;16.75;;;;;;;;5056942;28;45390;-72
2022/04/05 03:45:57;;;;;;;;;26.25;25.25;;;;;;;;5057385;28;45499;-72
2022/04/05 03:48:22;;;;;;;;;17.50;15.50;;;;;;;;5057453;28;45325;-71
2022/04/05 03:50:47;;;;;;;;;25.75;21.50;;;;;;;;5056138;28;45519;-75
2022/04/05 03:53:13;;;;;;;;;20.75;19.75;;;;;;;;5057597;28;45448;-74
2022/04/05 03:55:38;;;;;;;;;15.75;15.00;;;;;;;;5057318;28;45447;-72
2022/04/05 03:58:04;;;;;;;;;27.50;23.75;;;;;;;;5057094;28;45374;-72
2022/04/05 04:00:29;;;;;;;;;12.50;11.75;;;;;;;;5057732;28;45493;-74
2022/04/05 04:02:55;;;;;;;;;51.67;44.00;;;;;;;;5057534;28;45393;-74
2022/04/05 04:05:21;;;;;;;;;16.00;16.00;;;;;;;;5055885;28;47554;-75
2022/04/05 04:07:47;;;;;;;;;17.00;16.25;;;;;;;;5057328;28;45312;-74
2022/04/05 04:10:12;;;;;;;;;14.00;14.00;;;;;;;;5057489;28;45250;-74
2022/04/05 04:12:38;;;;;;;;;14.50;13.50;;;;;;;;5056019;28;45429;-74
2022/04/05 04:15:04;;;;;;;;;27.50;25.50;;;;;;;;5057296;28;46243;-75
2022/04/05 04:17:29;;;;;;;;;45.25;38.25;;;;;;;;5055611;28;45404;-74
2022/04/05 04:19:54;;;;;;;;;33.50;32.25;;;;;;;;5055798;28;45231;-75
2022/04/05 04:22:20;;;;;;;;;14.25;14.25;;;;;;;;5056069;28;45561;-74
2022/04/05 04:24:45;;;;;;;;;15.75;12.00;;;;;;;;5057006;28;45897;-75
2022/04/05 04:27:11;;;;;;;;;13.00;11.75;;;;;;;;5055613;28;45458;-75
2022/04/05 04:29:37;;;;;;;;;11.25;11.00;;;;;;;;5056951;28;45234;-74
2022/04/05 04:32:02;;;;;;;;;19.75;15.25;;;;;;;;5056369;28;45253;-74
2022/04/05 04:34:27;;;;;;;;;18.00;15.25;;;;;;;;5055596;28;46668;-74
2022/04/05 04:36:53;;;;;;;;;10.50;10.00;;;;;;;;5056988;28;45290;-74
2022/04/05 04:39:18;;;;;;;;;13.00;12.25;;;;;;;;5056950;28;45392;-75
2022/04/05 04:41:44;;;;;;;;;15.25;13.50;;;;;;;;5056963;28;45898;-74
2022/04/05 04:44:09;;;;;;;;;16.50;14.00;;;;;;;;5056431;28;46079;-75
2022/04/05 04:46:35;;;;;;;;;34.25;33.50;;;;;;;;5055707;28;45453;-74
2022/04/05 04:49:00;;;;;;;;;24.75;23.50;;;;;;;;5056764;28;46016;-75
2022/04/05 04:51:26;;;;;;;;;24.25;18.00;;;;;;;;5055447;28;45837;-75
2022/04/05 04:53:51;;;;;;;;;26.75;25.75;;;;;;;;5056422;28;45492;-75
2022/04/05 04:56:16;;;;;;;;;16.50;14.25;;;;;;;;5055122;28;45789;-75
2022/04/05 04:58:42;;;;;;;;;19.00;16.75;;;;;;;;5054982;28;46003;-74
2022/04/05 05:01:07;;;;;;;;;11.50;10.75;;;;;;;;5057347;28;45916;-74
2022/04/05 05:03:33;;;;;;;;;13.00;12.00;;;;;;;;5055428;28;46802;-74
2022/04/05 05:05:58;;;;;;;;;12.50;11.00;;;;;;;;5056417;28;45463;-75
2022/04/05 05:08:24;;;;;;;;;14.75;13.75;;;;;;;;5055024;28;45572;-75
2022/04/05 05:10:49;;;;;;;;;17.00;15.00;;;;;;;;5056653;28;45492;-74
2022/04/05 05:13:17;;;;;;;;;12.00;11.75;;;;;;;;5056232;28;46004;-74
2022/04/05 05:15:43;;;;;;;;;13.75;11.00;;;;;;;;5056178;28;45456;-73
2022/04/05 05:18:08;;;;;;;;;16.75;14.00;;;;;;;;5056750;28;45277;-73
2022/04/05 05:20:33;;;;;;;;;17.50;15.25;;;;;;;;5056998;28;45437;-75
2022/04/05 05:22:59;;;;;;;;;17.50;14.75;;;;;;;;5056880;28;45339;-75
2022/04/05 05:25:24;;;;;;;;;13.75;13.00;;;;;;;;5058595;28;45373;-74
2022/04/05 05:27:49;;;;;;;;;14.25;13.50;;;;;;;;5058554;28;45322;-75
2022/04/05 05:30:15;;;;;;;;;15.25;14.75;;;;;;;;5058707;28;45300;-74
2022/04/05 05:32:44;;;;;;;;;21.00;15.50;;;;;;;;5059530;28;46028;-74
2022/04/05 05:35:10;;;;;;;;;22.25;16.25;;;;;;;;5059793;28;45346;-72
2022/04/05 05:37:35;;;;;;;;;20.00;18.50;;;;;;;;5059973;28;45364;-74
2022/04/05 05:40:01;;;;;;;;;15.00;14.00;;;;;;;;5059888;28;45389;-75
2022/04/05 05:42:26;;;;;;;;;17.50;14.75;;;;;;;;5057903;28;47697;-74
2022/04/05 05:44:52;;;;;;;;;13.25;11.75;;;;;;;;5057849;28;45418;-74
2022/04/05 05:47:17;;;;;;;;;14.50;13.50;;;;;;;;5059619;28;45261;-75
2022/04/05 05:49:42;;;;;;;;;19.00;15.25;;;;;;;;5058291;28;45450;-74
2022/04/05 05:52:08;;;;;;;;;10.75;9.75;;;;;;;;5059673;28;45455;-74
2022/04/05 05:54:33;;;;;;;;;12.00;12.00;;;;;;;;5059434;28;45310;-74
2022/04/05 05:56:58;;;;;;;;;13.50;13.25;;;;;;;;5061333;28;45500;-74
2022/04/05 05:59:26;;;;;;;;;27.25;27.25;;;;;;;;5069281;27;45554;-74
2022/04/05 06:01:51;;;;;;;;;35.25;34.00;;;;;;;;5068357;28;46152;-73
2022/04/05 06:04:17;;;;;;;;;22.00;21.00;;;;;;;;5067466;27;45315;-73
2022/04/05 06:06:43;;;;;;;;;20.25;17.75;;;;;;;;5069537;28;45548;-73
2022/04/05 06:09:08;;;;;;;;;17.25;14.75;;;;;;;;5068245;28;45179;-75
2022/04/05 06:11:33;;;;;;;;;28.50;26.50;;;;;;;;5067936;27;45497;-73
2022/04/05 06:13:59;;;;;;;;;53.00;45.50;;;;;;;;5068843;28;45503;-72
2022/04/05 06:16:24;;;;;;;;;26.00;25.25;;;;;;;;5065702;27;45520;-74
2022/04/05 06:18:50;;;;;;;;;34.50;32.50;;;;;;;;5068800;27;45558;-74
2022/04/05 06:21:15;;;;;;;;;24.25;21.75;;;;;;;;5067011;28;46141;-75
2022/04/05 06:23:41;;;;;;;;;18.00;15.75;;;;;;;;5065880;27;45296;-73
2022/04/05 06:26:06;;;;;;;;;21.75;17.00;;;;;;;;5068951;28;45441;-72
2022/04/05 06:28:32;;;;;;;;;55.75;45.75;;;;;;;;5068319;28;45480;-75
2022/04/05 06:30:57;;;;;;;;;73.00;59.33;;;;;;;;5067005;27;45476;-72
2022/04/05 06:33:23;;;;;;;;;76.33;58.67;;;;;;;;5068803;28;45520;-72
2022/04/05 06:35:50;;;;;;;;;62.00;48.75;;;;;;;;5065911;28;45413;-74
2022/04/05 06:38:15;;;;;;;;;52.50;45.00;;;;;;;;5067417;28;45527;-74
2022/04/05 06:40:43;;;;;;;;;32.50;29.75;;;;;;;;5067862;28;47647;-73
2022/04/05 06:43:09;;;;;;;;;39.75;35.50;;;;;;;;5066388;28;45502;-70
2022/04/05 06:45:35;;;;;;;;;32.75;31.25;;;;;;;;5067638;27;45409;-74
2022/04/05 06:48:00;;;;;;;;;23.50;22.00;;;;;;;;5069214;28;45465;-73
2022/04/05 06:50:26;;;;;;;;;28.00;24.00;;;;;;;;5066703;28;46304;-73
2022/04/05 06:52:52;;;;;;;;;27.50;24.25;;;;;;;;5066266;28;45400;-75
2022/04/05 06:55:18;;;;;;;;;30.25;29.25;;;;;;;;5068498;28;45463;-71
2022/04/05 06:57:43;;;;;;;;;42.00;38.25;;;;;;;;5065425;27;45468;-73
2022/04/05 07:00:10;;;;;;;;;39.00;34.25;;;;;;;;5068484;27;46071;-74
2022/04/05 07:02:35;;;;;;;;;37.00;33.25;;;;;;;;5067891;28;45491;-74
2022/04/05 07:05:01;;;;;;;;;30.00;29.00;;;;;;;;5066396;27;45467;-74
2022/04/05 07:07:26;;;;;;;;;31.75;30.00;;;;;;;;5068886;27;45390;-74
2022/04/05 07:09:51;;;;;;;;;26.50;25.00;;;;;;;;5067030;28;45431;-73
2022/04/05 07:12:17;;;;;;;;;23.00;22.75;;;;;;;;5078482;27;45356;-75
2022/04/05 07:14:42;;;;;;;;;17.50;16.00;;;;;;;;5078661;27;45294;-75
2022/04/05 07:17:08;;;;;;;;;9.75;9.75;;;;;;;;5078351;27;45371;-75
2022/04/05 07:19:35;;;;;;;;;11.00;11.00;;;;;;;;5078123;27;46065;-74
2022/04/05 07:22:02;;;;;;;;;4.00;3.75;;;;;;;;5074853;27;45483;-75
2022/04/05 07:24:28;;;;;;;;;16.25;14.25;;;;;;;;5066499;27;45584;-75
2022/04/05 07:26:54;;;;;;;;;17.50;15.00;;;;;;;;5068316;28;45916;-74
2022/04/05 07:29:19;;;;;;;;;14.50;14.00;;;;;;;;5065415;28;47121;-75
2022/04/05 07:31:45;;;;;;;;;17.25;15.50;;;;;;;;5065363;27;45421;-73
2022/04/05 07:34:10;;;;;;;;;16.33;13.33;;;;;;;;5058534;28;45815;-76
2022/04/05 07:36:36;;;;;;;;;18.00;15.33;;;;;;;;5067869;27;45570;-71
2022/04/05 07:39:01;;;;;;;;;16.00;15.33;;;;;;;;5062982;27;45464;-75
2022/04/05 07:41:26;;;;;;;;;12.00;11.33;;;;;;;;5067237;28;45389;-73
2022/04/05 07:43:52;;;;;;;;;9.00;8.00;;;;;;;;5067680;28;45445;-72
2022/04/05 07:46:17;;;;;;;;;8.67;7.00;;;;;;;;5061227;28;45689;-72
2022/04/05 07:48:42;;;;;;;;;9.00;9.00;;;;;;;;5068091;27;45518;-72
2022/04/05 07:51:08;;;;;;;;;9.00;9.00;;;;;;;;5048479;27;45432;-72
2022/04/05 07:53:34;;;;;;;;;7.33;7.33;;;;;;;;5043194;28;45463;-74
2022/04/05 07:55:59;;;;;;;;;9.00;8.00;;;;;;;;5056867;28;45331;-76
2022/04/05 07:58:25;;;;;;;;;9.00;9.00;;;;;;;;5057287;28;46500;-77
2022/04/05 08:00:51;;;;;;;;;8.00;8.00;;;;;;;;5056186;28;45609;-78
2022/04/05 08:03:17;;;;;;;;;22.33;18.67;;;;;;;;5057475;28;45235;-74
2022/04/05 08:05:43;;;;;;;;;10.00;9.00;;;;;;;;5057654;28;45476;-74
2022/04/05 08:08:08;;;;;;;;;7.00;7.00;;;;;;;;5055495;28;45648;-78
2022/04/05 08:10:34;;;;;;;;;18.33;14.33;;;;;;;;5056902;28;45401;-78
2022/04/05 08:13:00;;;;;;;;;10.67;9.33;;;;;;;;5057354;28;45404;-78
2022/04/05 08:15:25;;;;;;;;;8.00;8.00;;;;;;;;5055726;28;45320;-78
2022/04/05 08:17:51;;;;;;;;;8.33;8.33;;;;;;;;5057101;28;45510;-78
2022/04/05 08:20:17;;;;;;;;;8.00;7.67;;;;;;;;5057062;28;45484;-74
2022/04/05 08:22:43;;;;;;;;;8.00;7.00;;;;;;;;5056318;28;45270;-79
2022/04/05 08:25:10;;;;;;;;;7.00;7.00;;;;;;;;5055738;28;45307;-79
2022/04/05 08:27:36;;;;;;;;;8.67;8.33;;;;;;;;5055384;28;45402;-78
2022/04/05 08:30:02;;;;;;;;;7.33;6.67;;;;;;;;5056804;28;45229;-78
2022/04/05 08:32:27;;;;;;;;;7.67;7.33;;;;;;;;5057257;28;45164;-78
2022/04/05 08:34:52;;;;;;;;;6.67;6.00;;;;;;;;5055702;28;45295;-78
2022/04/05 08:37:18;;;;;;;;;21.00;21.00;;;;;;;;5055418;28;46747;-76
2022/04/05 08:39:43;;;;;;;;;11.33;9.33;;;;;;;;5057194;28;45227;-78
2022/04/05 08:42:09;;;;;;;;;6.33;6.00;;;;;;;;5055624;28;45378;-78
2022/04/05 08:44:35;;;;;;;;;10.33;9.33;;;;;;;;5055658;28;45675;-78
2022/04/05 08:47:01;;;;;;;;;11.67;10.33;;;;;;;;5056332;28;46488;-78
2022/04/05 08:49:27;;;;;;;;;11.00;10.33;;;;;;;;5056792;28;45356;-78
2022/04/05 08:51:53;;;;;;;;;7.00;6.00;;;;;;;;5056567;28;45305;-79
2022/04/05 08:54:18;;;;;;;;;8.00;7.00;;;;;;;;5055557;28;45484;-79
2022/04/05 08:56:44;;;;;;;;;9.00;9.00;;;;;;;;5056520;28;45624;-79
2022/04/05 08:59:09;;;;;;;;;8.33;8.33;;;;;;;;5059263;28;45278;-79
2022/04/05 09:01:34;;;;;;;;;13.00;11.00;;;;;;;;5059013;28;45458;-79
2022/04/05 09:04:00;;;;;;;;;11.33;10.33;;;;;;;;5059057;28;45369;-79
2022/04/05 09:06:29;;;;;;;;;11.00;11.00;;;;;;;;5060057;28;46147;-79
2022/04/05 09:09:05;;;;;;;;;10.33;10.33;;;;;;;;5058395;28;45343;-79
2022/04/05 09:11:30;;;;;;;;;11.67;11.00;;;;;;;;5058919;28;45271;-79
2022/04/05 09:14:00;;;;;;;;;13.00;11.00;;;;;;;;5058638;28;45555;-79
2022/04/05 09:16:28;;;;;;;;;12.67;12.33;;;;;;;;5058461;28;46601;-79
2022/04/05 09:18:53;;;;;;;;;12.67;12.67;;;;;;;;5058223;28;45514;-79
2022/04/05 09:21:19;;;;;;;;;12.67;12.33;;;;;;;;5058480;28;45468;-79
2022/04/05 09:23:44;;;;;;;;;12.67;12.00;;;;;;;;5058692;28;45266;-79
2022/04/05 09:26:11;;;;;;;;;11.00;11.00;;;;;;;;5059380;28;47436;-79
2022/04/05 09:28:42;;;;;;;;;13.00;13.00;;;;;;;;5059883;28;45445;-78
2022/04/05 09:31:09;;;;;;;;;13.67;13.00;;;;;;;;5058330;28;45519;-79
2022/04/05 09:33:36;;;;;;;;;11.00;9.67;;;;;;;;5058460;28;45558;-79
2022/04/05 09:36:12;;;;;;;;;12.67;11.00;;;;;;;;5059657;28;46102;-79
2022/04/05 09:38:38;;;;;;;;;12.33;11.00;;;;;;;;5058214;28;45483;-80
2022/04/05 09:41:09;;;;;;;;;11.00;11.00;;;;;;;;5058264;28;45307;-79
2022/04/05 09:43:35;;;;;;;;;11.67;11.67;;;;;;;;5059653;28;45184;-80
2022/04/05 09:46:01;;;;;;;;;9.00;9.00;;;;;;;;5057710;28;46406;-78
2022/04/05 09:48:28;;;;;;;;;15.00;13.67;;;;;;;;5057745;28;45539;-78
2022/04/05 09:51:02;;;;;;;;;13.00;12.67;;;;;;;;5058856;28;45475;-78
2022/04/05 09:53:50;;;;;;;;;18.33;17.33;;;;;;;;5059304;28;45298;-78
2022/04/05 09:56:23;;;;;;;;;13.00;12.67;;;;;;;;5056932;28;46317;-78
2022/04/05 09:58:50;;;;;;;;;9.33;9.00;;;;;;;;5057911;28;45665;-78
2022/04/05 10:01:16;;;;;;;;;18.00;16.00;;;;;;;;5057405;28;45246;-78
2022/04/05 10:03:42;;;;;;;;;13.00;12.00;;;;;;;;5059193;28;45497;-78
2022/04/05 10:06:08;;;;;;;;;15.33;14.67;;;;;;;;5058880;28;45377;-78
2022/04/05 10:08:34;;;;;;;;;13.33;12.00;;;;;;;;5058422;28;45325;-78
2022/04/05 10:11:00;;;;;;;;;20.00;18.00;;;;;;;;5059296;28;45310;-79
2022/04/05 10:13:26;;;;;;;;;13.33;13.00;;;;;;;;5057727;28;45627;-78
2022/04/05 10:15:52;;;;;;;;;11.00;11.00;;;;;;;;5059158;28;45509;-78
2022/04/05 10:18:19;;;;;;;;;15.00;14.33;;;;;;;;5058878;28;45588;-78
2022/04/05 10:20:46;;;;;;;;;12.67;12.00;;;;;;;;5057682;28;45488;-77
2022/04/05 10:23:12;;;;;;;;;20.33;19.33;;;;;;;;5058989;28;45454;-78
2022/04/05 10:25:41;;;;;;;;;15.67;15.00;;;;;;;;5058591;28;45986;-78
2022/04/05 10:28:07;;;;;;;;;13.67;13.33;;;;;;;;5057422;28;45476;-78
2022/04/05 10:30:36;;;;;;;;;18.00;16.33;;;;;;;;5057372;28;45502;-78
2022/04/05 10:33:12;;;;;;;;;12.33;12.33;;;;;;;;5057830;28;45364;-78
2022/04/05 10:35:42;;;;;;;;;27.00;25.00;;;;;;;;5057034;28;46486;-77
2022/04/05 10:38:17;;;;;;;;;13.00;11.33;;;;;;;;5058498;28;45492;-78
2022/04/05 10:40:42;;;;;;;;;13.00;12.00;;;;;;;;5058585;28;45353;-78
2022/04/05 10:43:17;;;;;;;;;14.00;13.00;;;;;;;;5057192;28;45538;-78
2022/04/05 10:45:44;;;;;;;;;14.33;13.00;;;;;;;;5057086;28;46825;-78
2022/04/05 10:48:12;;;;;;;;;14.00;13.00;;;;;;;;5058583;28;45318;-78
2022/04/05 10:50:37;;;;;;;;;18.33;17.00;;;;;;;;5058471;28;45615;-78
2022/04/05 10:53:15;;;;;;;;;15.00;14.33;;;;;;;;5057152;28;45237;-78
2022/04/05 10:55:59;;;;;;;;;22.00;20.67;;;;;;;;5056829;28;45499;-78
2022/04/05 10:58:24;;;;;;;;;15.00;14.00;;;;;;;;5058513;28;45461;-78
2022/04/05 11:01:11;;;;;;;;;20.67;20.67;;;;;;;;5058259;28;45357;-77
2022/04/05 11:03:36;;;;;;;;;16.67;15.00;;;;;;;;5058443;28;45459;-78
2022/04/05 11:06:03;;;;;;;;;13.67;13.67;;;;;;;;5057869;28;45444;-77
2022/04/05 11:08:29;;;;;;;;;14.00;13.00;;;;;;;;5056738;28;45414;-77
2022/04/05 11:10:59;;;;;;;;;15.00;14.33;;;;;;;;5058566;28;45310;-77
2022/04/05 11:13:35;;;;;;;;;23.33;18.33;;;;;;;;5056939;28;45648;-77
2022/04/05 11:16:01;;;;;;;;;12.00;12.00;;;;;;;;5055448;28;47742;-77
2022/04/05 11:18:29;;;;;;;;;13.33;13.00;;;;;;;;5055977;28;45916;-76
2022/04/05 11:20:56;;;;;;;;;13.00;13.00;;;;;;;;5057267;28;45315;-78
2022/04/05 11:23:42;;;;;;;;;13.67;13.00;;;;;;;;5058037;28;45353;-77
2022/04/05 11:26:24;;;;;;;;;17.67;16.33;;;;;;;;5056846;28;46233;-77
2022/04/05 11:28:49;;;;;;;;;12.67;12.67;;;;;;;;5057578;28;45455;-78
2022/04/05 11:31:26;;;;;;;;;13.33;12.33;;;;;;;;5055585;28;45699;-77
2022/04/05 11:33:51;;;;;;;;;15.33;15.00;;;;;;;;5056007;28;45195;-77
2022/04/05 11:36:21;;;;;;;;;13.00;12.33;;;;;;;;5057252;28;45881;-78
2022/04/05 11:38:47;;;;;;;;;13.33;13.33;;;;;;;;5057551;28;45314;-77
2022/04/05 11:41:25;;;;;;;;;13.00;12.50;;;;;;;;5057192;28;45487;-77
2022/04/05 11:43:52;;;;;;;;;15.00;13.75;;;;;;;;5049905;28;45794;-77
2022/04/05 11:46:20;;;;;;;;;14.75;14.00;;;;;;;;5056093;28;45631;-77
2022/04/05 11:48:47;;;;;;;;;17.25;16.25;;;;;;;;5055989;28;45427;-76
2022/04/05 11:51:14;;;;;;;;;18.00;17.00;;;;;;;;5057051;28;45209;-74
2022/04/05 11:53:39;;;;;;;;;17.00;16.00;;;;;;;;5056055;28;45474;-77
2022/04/05 11:56:14;;;;;;;;;14.50;13.50;;;;;;;;5055819;28;45492;-77
2022/04/05 11:58:42;;;;;;;;;14.25;14.00;;;;;;;;5055820;28;45563;-75
2022/04/05 12:01:09;;;;;;;;;13.25;13.25;;;;;;;;5055707;28;45496;-76
2022/04/05 12:03:41;;;;;;;;;18.75;18.50;;;;;;;;5057392;28;45448;-77
2022/04/05 12:06:07;;;;;;;;;12.00;11.50;;;;;;;;5055700;28;46694;-77
2022/04/05 12:08:32;;;;;;;;;17.75;14.00;;;;;;;;5055619;28;45354;-76
2022/04/05 12:10:58;;;;;;;;;15.25;14.25;;;;;;;;5056030;28;45481;-77
2022/04/05 12:13:27;;;;;;;;;15.00;14.25;;;;;;;;5057520;28;45302;-78
2022/04/05 12:15:57;;;;;;;;;16.25;14.00;;;;;;;;5056853;28;45632;-78
2022/04/05 12:18:27;;;;;;;;;21.00;18.50;;;;;;;;5055282;28;45537;-77
2022/04/05 12:21:03;;;;;;;;;12.75;11.50;;;;;;;;5055622;28;45362;-77
2022/04/05 12:23:30;;;;;;;;;16.00;14.25;;;;;;;;5057221;28;45500;-76
2022/04/05 12:26:01;;;;;;;;;17.75;15.75;;;;;;;;5055829;28;45309;-75
2022/04/05 12:28:26;;;;;;;;;15.25;14.25;;;;;;;;5054674;28;45263;-77
2022/04/05 12:30:52;;;;;;;;;17.75;16.00;;;;;;;;5056180;28;45398;-77
2022/04/05 12:33:24;;;;;;;;;13.25;13.00;;;;;;;;5058251;28;45662;-78
2022/04/05 12:35:49;;;;;;;;;13.25;13.00;;;;;;;;5058851;28;48132;-77
2022/04/05 12:38:15;;;;;;;;;19.00;17.25;;;;;;;;5058921;28;45231;-78
2022/04/05 12:40:41;;;;;;;;;14.25;14.00;;;;;;;;5059094;28;45530;-77
2022/04/05 12:43:17;;;;;;;;;18.25;14.75;;;;;;;;5059185;28;45440;-77
2022/04/05 12:45:42;;;;;;;;;13.50;12.50;;;;;;;;5058798;28;45898;-77
2022/04/05 12:48:12;;;;;;;;;17.00;15.00;;;;;;;;5060258;28;45495;-77
2022/04/05 12:50:42;;;;;;;;;16.50;15.00;;;;;;;;5060338;28;45530;-78
2022/04/05 12:53:07;;;;;;;;;17.00;15.75;;;;;;;;5060301;28;45390;-78
2022/04/05 12:55:34;;;;;;;;;13.00;12.50;;;;;;;;5059819;28;45783;-75
2022/04/05 12:57:59;;;;;;;;;11.75;11.00;;;;;;;;5060307;28;45448;-77
2022/04/05 13:00:28;;;;;;;;;12.50;11.25;;;;;;;;5058923;28;45563;-77
2022/04/05 13:03:11;;;;;;;;;14.50;13.75;;;;;;;;5060487;28;45282;-77
2022/04/05 13:08:31;;;;;;;;;13.00;11.50;;;;;;;;5060075;28;45405;-77
2022/04/05 13:10:57;;;;;;;;;18.25;14.50;;;;;;;;5060088;28;45365;-77
2022/04/05 13:13:34;;;;;;;;;10.25;10.25;;;;;;;;5060123;28;45295;-77
2022/04/05 13:16:03;;;;;;;;;11.00;10.25;;;;;;;;5059953;28;45420;-77
2022/04/05 13:18:47;;;;;;;;;9.25;9.00;;;;;;;;5059520;28;45412;-77
2022/04/05 13:21:22;;;;;;;;;13.00;12.00;;;;;;;;5059887;28;45393;-77
2022/04/05 13:24:00;;;;;;;;;13.50;12.25;;;;;;;;5059790;28;45322;-76
2022/04/05 13:26:27;;;;;;;;;21.75;21.00;;;;;;;;5058031;28;45544;-77
2022/04/05 13:29:08;;;;;;;;;13.75;13.00;;;;;;;;5058270;28;45258;-77
2022/04/05 13:31:34;;;;;;;;;11.00;10.25;;;;;;;;5059923;28;45425;-78
2022/04/05 13:34:00;;;;;;;;;18.00;16.00;;;;;;;;5060112;28;45490;-77
2022/04/05 13:36:26;;;;;;;;;16.25;14.75;;;;;;;;5059055;28;46430;-77
2022/04/05 13:38:51;;;;;;;;;12.50;11.00;;;;;;;;5059481;28;45394;-78
2022/04/05 13:41:16;;;;;;;;;12.75;12.75;;;;;;;;5059419;28;45451;-79
2022/04/05 13:43:42;;;;;;;;;10.00;10.00;;;;;;;;5058515;28;45456;-78
2022/04/05 13:46:08;;;;;;;;;16.00;16.00;;;;;;;;5059102;28;46523;-75
2022/04/05 13:48:34;;;;;;;;;12.00;11.50;;;;;;;;5057929;28;45644;-78
2022/04/05 13:50:59;;;;;;;;;11.25;11.25;;;;;;;;5057534;28;45330;-75
2022/04/05 13:53:24;;;;;;;;;13.25;11.25;;;;;;;;5059452;28;45982;-76
2022/04/05 13:55:50;;;;;;;;;13.25;12.50;;;;;;;;5058764;28;45321;-76
2022/04/05 13:58:15;;;;;;;;;13.00;12.75;;;;;;;;5057657;28;46079;-76
2022/04/05 14:00:41;;;;;;;;;14.75;13.75;;;;;;;;5058722;28;45367;-75
2022/04/05 14:03:07;;;;;;;;;15.00;14.00;;;;;;;;5058541;28;45738;-76
2022/04/05 14:05:32;;;;;;;;;13.00;12.50;;;;;;;;5059176;28;46334;-77
2022/04/05 14:07:57;;;;;;;;;20.25;17.25;;;;;;;;5057560;28;45475;-77
2022/04/05 14:10:23;;;;;;;;;21.50;20.00;;;;;;;;5057691;28;45661;-77
2022/04/05 14:12:48;;;;;;;;;17.75;17.75;;;;;;;;5057566;28;45291;-77
2022/04/05 14:15:13;;;;;;;;;18.00;18.00;;;;;;;;5057390;28;45464;-75
2022/04/05 14:17:39;;;;;;;;;15.25;15.00;;;;;;;;5060138;28;45406;-76
2022/04/05 14:20:08;;;;;;;;;16.25;15.25;;;;;;;;5057791;28;45323;-77